createdAt,value
2017-08-26T00:00:53.699Z,96.80
2017-08-26T00:03:20.059Z,96.90
2017-08-26T00:05:46.432Z,97.10
2017-08-26T00:08:13.488Z,97.20
2017-08-26T00:10:40.750Z,97.20
2017-08-26T00:13:07.252Z,97.20
2017-08-26T00:15:34.051Z,97.30
2017-08-26T00:18:00.434Z,97.20
2017-08-26T00:20:27.495Z,97.20
2017-08-26T00:22:53.874Z,97.20
2017-08-26T00:25:20.296Z,97.20
2017-08-26T00:27:46.638Z,97.10
2017-08-26T00:30:13.011Z,97.10
2017-08-26T00:32:39.411Z,97.10
2017-08-26T00:35:05.786Z,97.20
2017-08-26T00:37:33.341Z,97.10
2017-08-26T00:40:00.371Z,97.00
2017-08-26T00:42:26.736Z,97.00
2017-08-26T00:44:53.120Z,97.30
2017-08-26T00:47:19.487Z,97.40
2017-08-26T00:49:46.157Z,97.40
2017-08-26T00:52:12.507Z,97.40
2017-08-26T00:54:38.904Z,97.40
2017-08-26T00:57:05.316Z,97.30
2017-08-26T00:59:31.712Z,97.30
2017-08-26T01:01:58.116Z,97.20
2017-08-26T01:04:24.493Z,97.20
2017-08-26T01:06:51.996Z,97.30
2017-08-26T01:09:18.418Z,97.30
2017-08-26T01:11:44.709Z,97.40
2017-08-26T01:14:11.083Z,97.40
2017-08-26T01:16:37.497Z,97.50
2017-08-26T01:19:03.863Z,97.50
2017-08-26T01:21:30.202Z,97.50
2017-08-26T01:23:56.585Z,97.50
2017-08-26T01:26:22.976Z,97.50
2017-08-26T01:28:49.776Z,97.30
2017-08-26T01:31:16.135Z,97.40
2017-08-26T01:33:42.503Z,97.40
2017-08-26T01:36:08.914Z,97.40
2017-08-26T01:38:35.303Z,97.30
2017-08-26T01:41:01.682Z,97.30
2017-08-26T01:43:28.037Z,97.30
2017-08-26T01:45:55.138Z,97.50
2017-08-26T01:48:21.525Z,97.40
2017-08-26T01:50:47.887Z,97.50
2017-08-26T01:53:14.289Z,97.70
2017-08-26T01:55:40.683Z,97.70
2017-08-26T01:58:07.022Z,97.70
2017-08-26T02:00:33.414Z,97.80
2017-08-26T02:03:00.103Z,98.10
2017-08-26T02:05:26.474Z,98.20
2017-08-26T02:07:58.752Z,98.30
2017-08-26T02:10:25.130Z,98.30
2017-08-26T02:12:52.132Z,98.40
2017-08-26T02:15:18.973Z,98.50
2017-08-26T02:17:45.385Z,98.50
2017-08-26T02:20:11.800Z,98.50
2017-08-26T02:22:38.140Z,98.50
2017-08-26T02:25:04.940Z,98.50
2017-08-26T02:27:31.314Z,98.40
2017-08-26T02:29:57.672Z,98.40
2017-08-26T02:32:24.052Z,98.40
2017-08-26T02:34:50.319Z,98.30
2017-08-26T02:37:16.969Z,98.40
2017-08-26T02:39:43.360Z,98.40
2017-08-26T02:42:09.713Z,98.50
2017-08-26T02:44:36.108Z,98.50
2017-08-26T02:47:02.442Z,98.60
2017-08-26T02:49:28.830Z,98.70
2017-08-26T02:51:55.232Z,98.70
2017-08-26T02:54:21.980Z,98.70
2017-08-26T02:56:48.330Z,98.60
2017-08-26T02:59:17.584Z,98.70
2017-08-26T03:01:43.952Z,98.70
2017-08-26T03:04:11.081Z,98.70
2017-08-26T03:06:37.618Z,98.70
2017-08-26T03:09:04.049Z,98.80
2017-08-26T03:11:30.710Z,98.80
2017-08-26T03:13:57.089Z,98.80
2017-08-26T03:16:23.426Z,98.90
2017-08-26T03:18:49.787Z,98.90
2017-08-26T03:21:16.148Z,98.80
2017-08-26T03:23:42.519Z,98.70
2017-08-26T03:26:08.957Z,98.70
2017-08-26T03:28:35.623Z,98.70
2017-08-26T03:31:01.962Z,98.80
2017-08-26T03:33:28.375Z,98.80
2017-08-26T03:35:54.755Z,99.00
2017-08-26T03:38:21.312Z,98.80
2017-08-26T03:40:47.679Z,98.70
2017-08-26T03:43:14.031Z,98.60
2017-08-26T03:45:40.769Z,98.60
2017-08-26T03:48:07.204Z,98.50
2017-08-26T03:50:33.580Z,98.50
2017-08-26T03:52:59.956Z,98.50
2017-08-26T03:55:26.311Z,98.60
2017-08-26T03:57:52.718Z,98.60
2017-08-26T04:00:19.086Z,98.30
2017-08-26T04:02:45.491Z,98.30
2017-08-26T04:05:11.839Z,98.30
2017-08-26T04:07:38.439Z,98.00
2017-08-26T04:10:04.803Z,97.90
2017-08-26T04:12:31.199Z,97.90
2017-08-26T04:14:57.539Z,97.80
2017-08-26T04:17:23.926Z,97.60
2017-08-26T04:19:50.295Z,97.40
2017-08-26T04:22:16.668Z,97.20
2017-08-26T04:24:43.055Z,97.10
2017-08-26T04:27:09.423Z,97.40
2017-08-26T04:29:36.125Z,97.10
2017-08-26T04:32:06.265Z,97.10
2017-08-26T04:34:32.626Z,97.00
2017-08-26T04:36:58.997Z,96.80
2017-08-26T04:39:25.366Z,96.80
2017-08-26T04:41:51.753Z,96.70
2017-08-26T04:44:18.852Z,96.80
2017-08-26T04:46:45.728Z,96.90
2017-08-26T04:49:12.068Z,96.90
2017-08-26T04:51:38.479Z,97.10
2017-08-26T04:54:04.906Z,97.20
2017-08-26T04:56:31.249Z,97.10
2017-08-26T04:58:57.616Z,97.00
2017-08-26T05:01:23.956Z,96.90
2017-08-26T05:03:50.316Z,96.90
2017-08-26T05:06:16.655Z,96.80
2017-08-26T05:08:43.540Z,96.90
2017-08-26T05:11:10.469Z,96.80
2017-08-26T05:13:37.558Z,96.70
2017-08-26T05:16:03.975Z,96.70
2017-08-26T05:18:30.310Z,96.60
2017-08-26T05:20:56.654Z,96.50
2017-08-26T05:23:23.919Z,96.50
2017-08-26T05:25:51.459Z,96.50
2017-08-26T05:28:17.823Z,96.60
2017-08-26T05:30:44.458Z,96.60
2017-08-26T05:33:11.581Z,96.80
2017-08-26T05:35:37.960Z,96.90
2017-08-26T05:38:04.324Z,96.90
2017-08-26T05:40:30.664Z,96.80
2017-08-26T05:42:57.050Z,96.70
2017-08-26T05:45:23.439Z,96.80
2017-08-26T05:47:50.191Z,97.30
2017-08-26T05:50:16.540Z,97.10
2017-08-26T05:52:42.925Z,97.10
2017-08-26T05:55:09.300Z,97.10
2017-08-26T05:57:36.067Z,97.10
2017-08-26T06:00:02.487Z,97.10
2017-08-26T06:02:28.857Z,97.20
2017-08-26T06:04:55.220Z,97.10
2017-08-26T06:07:21.613Z,96.90
2017-08-26T06:09:48.340Z,97.10
2017-08-26T06:12:14.689Z,96.60
2017-08-26T06:14:41.827Z,96.50
2017-08-26T06:17:08.276Z,96.50
2017-08-26T06:19:35.157Z,96.50
2017-08-26T06:22:01.567Z,96.30
2017-08-26T06:24:27.945Z,96.10
2017-08-26T06:26:54.431Z,96.20
2017-08-26T06:29:21.547Z,95.80
2017-08-26T06:31:48.310Z,95.80
2017-08-26T06:34:14.706Z,95.60
2017-08-26T06:36:41.783Z,95.60
2017-08-26T06:39:08.149Z,95.50
2017-08-26T06:41:34.536Z,95.50
2017-08-26T06:44:00.914Z,95.40
2017-08-26T06:46:27.260Z,95.30
2017-08-26T06:48:53.657Z,95.20
2017-08-26T06:51:20.649Z,95.50
2017-08-26T06:53:47.306Z,95.50
2017-08-26T06:56:13.795Z,95.30
2017-08-26T06:58:40.128Z,95.00
2017-08-26T07:01:06.542Z,94.90
2017-08-26T07:03:32.919Z,94.70
2017-08-26T07:05:59.261Z,94.30
2017-08-26T07:08:25.679Z,94.30
2017-08-26T07:10:52.642Z,94.10
2017-08-26T07:13:19.084Z,94.00
2017-08-26T07:15:45.484Z,93.80
2017-08-26T07:18:12.060Z,93.80
2017-08-26T07:20:38.992Z,93.60
2017-08-26T07:23:06.153Z,93.60
2017-08-26T07:25:33.290Z,93.40
2017-08-26T07:27:59.757Z,93.10
2017-08-26T07:30:26.102Z,93.10
2017-08-26T07:32:52.476Z,92.70
2017-08-26T07:35:18.849Z,92.40
2017-08-26T07:37:45.206Z,92.00
2017-08-26T07:40:11.643Z,91.70
2017-08-26T07:42:38.680Z,91.50
2017-08-26T07:45:06.233Z,91.50
2017-08-26T07:47:32.573Z,91.50
2017-08-26T07:49:58.970Z,91.10
2017-08-26T07:52:25.357Z,90.80
2017-08-26T07:54:51.733Z,90.50
2017-08-26T07:57:18.126Z,90.50
2017-08-26T07:59:46.319Z,90.10
2017-08-26T08:02:13.264Z,89.50
2017-08-26T08:04:39.624Z,88.30
2017-08-26T08:07:05.970Z,87.20
2017-08-26T08:09:32.370Z,86.00
2017-08-26T08:11:59.443Z,85.40
2017-08-26T08:14:25.826Z,83.70
2017-08-26T08:16:52.200Z,82.60
2017-08-26T08:19:18.797Z,81.60
2017-08-26T08:21:45.129Z,81.30
2017-08-26T08:24:11.531Z,80.70
2017-08-26T08:26:37.906Z,80.00
2017-08-26T08:29:04.313Z,79.10
2017-08-26T08:31:30.721Z,79.10
2017-08-26T08:33:57.072Z,79.20
2017-08-26T08:36:23.777Z,78.30
2017-08-26T08:38:50.139Z,78.30
2017-08-26T08:41:16.567Z,78.70
2017-08-26T08:43:42.949Z,78.50
2017-08-26T08:46:09.305Z,77.40
2017-08-26T08:48:35.708Z,76.20
2017-08-26T08:51:02.068Z,75.50
2017-08-26T08:53:29.049Z,75.20
2017-08-26T08:55:55.453Z,74.50
2017-08-26T08:58:22.655Z,74.00
2017-08-26T09:00:49.080Z,72.80
2017-08-26T09:03:15.460Z,71.60
2017-08-26T09:05:42.162Z,70.50
2017-08-26T09:08:08.615Z,70.30
2017-08-26T09:10:35.003Z,70.00
2017-08-26T09:13:01.397Z,69.40
2017-08-26T09:15:27.739Z,69.10
2017-08-26T09:17:54.143Z,69.20
2017-08-26T09:20:20.497Z,69.10
2017-08-26T09:22:47.231Z,68.00
2017-08-26T09:25:14.220Z,68.20
2017-08-26T09:27:40.577Z,67.40
2017-08-26T09:30:06.959Z,67.50
2017-08-26T09:32:33.362Z,67.20
2017-08-26T09:34:59.731Z,66.70
2017-08-26T09:37:26.083Z,66.40
2017-08-26T09:39:52.463Z,65.40
2017-08-26T09:42:18.830Z,66.00
2017-08-26T09:44:45.226Z,65.50
2017-08-26T09:47:11.615Z,64.10
2017-08-26T09:49:38.318Z,63.60
2017-08-26T09:52:04.979Z,61.60
2017-08-26T09:54:31.347Z,61.20
2017-08-26T09:56:58.431Z,61.90
2017-08-26T09:59:24.823Z,62.30
2017-08-26T10:01:51.550Z,61.60
2017-08-26T10:04:18.000Z,61.30
2017-08-26T10:06:45.090Z,59.40
2017-08-26T10:09:11.586Z,59.80
2017-08-26T10:11:37.954Z,54.40
2017-08-26T10:14:04.649Z,54.50
2017-08-26T10:16:31.112Z,53.60
2017-08-26T10:18:57.522Z,53.90
2017-08-26T10:21:24.120Z,53.10
2017-08-26T10:23:50.564Z,52.20
2017-08-26T10:26:16.980Z,51.20
2017-08-26T10:28:43.699Z,49.70
2017-08-26T10:31:10.108Z,48.30
2017-08-26T10:33:37.162Z,49.30
2017-08-26T10:36:03.836Z,47.60
2017-08-26T10:38:31.250Z,48.20
2017-08-26T10:40:57.815Z,48.00
2017-08-26T10:43:24.278Z,47.90
2017-08-26T10:45:50.714Z,46.10
2017-08-26T10:48:17.176Z,45.40
2017-08-26T10:50:43.621Z,44.60
2017-08-26T10:53:10.345Z,44.60
2017-08-26T10:55:36.713Z,44.60
2017-08-26T10:58:03.129Z,44.20
2017-08-26T11:00:29.492Z,44.40
2017-08-26T11:02:55.925Z,43.00
2017-08-26T11:05:22.392Z,42.40
2017-08-26T11:07:48.795Z,42.00
2017-08-26T11:10:15.470Z,42.40
2017-08-26T11:12:41.983Z,42.10
2017-08-26T11:15:08.357Z,41.40
2017-08-26T11:17:34.724Z,41.80
2017-08-26T11:20:01.095Z,41.70
2017-08-26T11:22:28.135Z,40.70
2017-08-26T11:24:54.778Z,40.60
2017-08-26T11:27:21.845Z,39.60
2017-08-26T11:29:48.144Z,39.50
2017-08-26T11:32:14.513Z,37.90
2017-08-26T11:34:40.882Z,38.00
2017-08-26T11:37:07.232Z,39.00
2017-08-26T11:39:33.931Z,37.90
2017-08-26T11:42:00.362Z,38.90
2017-08-26T11:44:27.080Z,39.70
2017-08-26T11:46:53.555Z,38.40
2017-08-26T11:49:19.998Z,39.10
2017-08-26T11:51:46.418Z,39.20
2017-08-26T11:54:12.779Z,38.20
2017-08-26T11:56:39.335Z,39.40
2017-08-26T11:59:05.723Z,40.00
2017-08-26T12:01:32.138Z,38.90
2017-08-26T12:03:58.662Z,38.90
2017-08-26T12:06:25.091Z,36.40
2017-08-26T12:08:51.462Z,36.10
2017-08-26T12:11:17.912Z,37.00
2017-08-26T12:13:44.365Z,37.40
2017-08-26T12:16:10.712Z,36.70
2017-08-26T12:18:37.492Z,36.70
2017-08-26T12:21:03.914Z,36.90
2017-08-26T12:23:30.314Z,36.20
2017-08-26T12:25:56.769Z,37.00
2017-08-26T12:28:23.257Z,37.20
2017-08-26T12:30:49.700Z,38.00
2017-08-26T12:33:16.170Z,36.80
2017-08-26T12:35:42.565Z,37.10
2017-08-26T12:38:09.033Z,36.90
2017-08-26T12:40:35.472Z,36.40
2017-08-26T12:43:01.957Z,35.70
2017-08-26T12:45:28.336Z,36.40
2017-08-26T12:47:55.004Z,35.50
2017-08-26T12:50:21.412Z,35.40
2017-08-26T12:52:47.775Z,35.80
2017-08-26T12:55:14.182Z,37.20
2017-08-26T12:57:40.811Z,38.00
2017-08-26T13:00:07.181Z,38.10
2017-08-26T13:02:33.586Z,37.50
2017-08-26T13:05:00.253Z,38.10
2017-08-26T13:07:26.655Z,35.20
2017-08-26T13:09:53.470Z,35.40
2017-08-26T13:12:19.974Z,35.30
2017-08-26T13:14:46.667Z,35.60
2017-08-26T13:17:13.135Z,35.70
2017-08-26T13:19:39.508Z,35.40
2017-08-26T13:22:05.887Z,35.70
2017-08-26T13:24:32.978Z,36.30
2017-08-26T13:27:00.637Z,36.70
2017-08-26T13:29:27.008Z,37.30
2017-08-26T13:31:53.366Z,38.10
2017-08-26T13:34:19.801Z,37.00
2017-08-26T13:36:46.147Z,36.20
2017-08-26T13:39:12.532Z,36.50
2017-08-26T13:41:38.872Z,37.00
2017-08-26T13:44:05.241Z,36.50
2017-08-26T13:46:31.605Z,34.10
2017-08-26T13:48:58.339Z,33.90
2017-08-26T13:51:24.747Z,34.30
2017-08-26T13:53:51.804Z,35.10
2017-08-26T13:56:18.226Z,35.60
2017-08-26T13:58:44.585Z,34.80
2017-08-26T14:01:10.988Z,35.60
2017-08-26T14:03:37.402Z,35.40
2017-08-26T14:06:04.633Z,35.20
2017-08-26T14:08:30.989Z,35.40
2017-08-26T14:10:57.348Z,36.10
2017-08-26T14:13:23.719Z,37.30
2017-08-26T14:15:50.417Z,38.30
2017-08-26T14:18:16.802Z,39.40
2017-08-26T14:20:43.172Z,39.00
2017-08-26T14:23:09.909Z,39.10
2017-08-26T14:25:36.678Z,36.10
2017-08-26T14:28:03.093Z,35.10
2017-08-26T14:30:29.474Z,35.60
2017-08-26T14:32:55.885Z,36.10
2017-08-26T14:35:22.231Z,35.20
2017-08-26T14:37:49.192Z,35.90
2017-08-26T14:40:16.344Z,36.90
2017-08-26T14:42:42.750Z,36.40
2017-08-26T14:45:09.226Z,36.60
2017-08-26T14:47:36.002Z,36.40
2017-08-26T14:50:02.422Z,35.10
2017-08-26T14:52:28.772Z,34.20
2017-08-26T14:54:55.174Z,34.80
2017-08-26T14:57:22.379Z,35.40
2017-08-26T14:59:48.808Z,36.00
2017-08-26T15:02:17.185Z,35.20
2017-08-26T15:04:44.751Z,35.50
2017-08-26T15:07:11.136Z,35.10
2017-08-26T15:09:37.464Z,34.90
2017-08-26T15:12:03.910Z,34.50
2017-08-26T15:14:30.274Z,34.30
2017-08-26T15:16:56.655Z,35.70
2017-08-26T15:19:23.026Z,35.20
2017-08-26T15:21:49.709Z,35.40
2017-08-26T15:24:16.061Z,35.20
2017-08-26T15:26:42.395Z,34.60
2017-08-26T15:29:08.764Z,35.10
2017-08-26T15:31:35.798Z,34.80
2017-08-26T15:34:03.258Z,35.30
2017-08-26T15:36:29.631Z,35.50
2017-08-26T15:38:56.739Z,35.50
2017-08-26T15:41:23.062Z,35.50
2017-08-26T15:43:49.475Z,35.30
2017-08-26T15:46:16.533Z,35.60
2017-08-26T15:48:43.303Z,36.70
2017-08-26T15:51:09.676Z,37.50
2017-08-26T15:53:36.040Z,38.10
2017-08-26T15:56:02.391Z,39.90
2017-08-26T15:58:29.310Z,41.30
2017-08-26T16:00:55.683Z,42.60
2017-08-26T16:03:22.052Z,41.50
2017-08-26T16:05:48.905Z,41.10
2017-08-26T16:08:15.267Z,40.60
2017-08-26T16:10:41.601Z,39.30
2017-08-26T16:13:08.610Z,38.80
2017-08-26T16:15:35.413Z,39.60
2017-08-26T16:18:02.851Z,40.30
2017-08-26T16:20:29.517Z,40.30
2017-08-26T16:22:55.910Z,41.50
2017-08-26T16:25:22.302Z,41.90
2017-08-26T16:27:48.658Z,43.30
2017-08-26T16:30:15.028Z,43.50
2017-08-26T16:32:41.410Z,43.80
2017-08-26T16:35:07.801Z,44.00
2017-08-26T16:37:34.233Z,43.90
2017-08-26T16:40:00.631Z,44.50
2017-08-26T16:42:27.099Z,46.30
2017-08-26T16:44:53.464Z,48.00
2017-08-26T16:47:20.203Z,49.50
2017-08-26T16:49:46.663Z,50.40
2017-08-26T16:52:13.292Z,51.50
2017-08-26T16:54:39.650Z,53.00
2017-08-26T16:57:06.012Z,54.20
2017-08-26T16:59:32.360Z,55.20
2017-08-26T17:01:59.160Z,56.00
2017-08-26T17:04:25.695Z,56.50
2017-08-26T17:06:52.045Z,57.00
2017-08-26T17:09:18.884Z,56.60
2017-08-26T17:11:45.226Z,56.80
2017-08-26T17:14:11.599Z,57.40
2017-08-26T17:16:37.927Z,57.70
2017-08-26T17:19:04.582Z,59.20
2017-08-26T17:21:30.960Z,59.70
2017-08-26T17:23:57.322Z,59.60
2017-08-26T17:26:24.143Z,59.90
2017-08-26T17:28:50.500Z,59.90
2017-08-26T17:31:17.809Z,59.10
2017-08-26T17:33:44.691Z,58.40
2017-08-26T17:36:11.052Z,59.40
2017-08-26T17:41:31.270Z,61.20
2017-08-26T17:43:57.628Z,62.70
2017-08-26T17:46:24.746Z,64.30
2017-08-26T17:48:51.155Z,65.40
2017-08-26T17:51:17.715Z,66.50
2017-08-26T17:53:44.104Z,67.00
2017-08-26T17:56:10.528Z,67.00
2017-08-26T17:58:36.898Z,65.60
2017-08-26T18:01:05.517Z,65.40
2017-08-26T18:03:31.861Z,65.90
2017-08-26T18:05:58.255Z,66.60
2017-08-26T18:08:24.574Z,67.60
2017-08-26T18:10:50.990Z,68.40
2017-08-26T18:13:17.652Z,69.10
2017-08-26T18:15:44.035Z,70.20
2017-08-26T18:18:10.401Z,71.20
2017-08-26T18:20:36.847Z,71.80
2017-08-26T18:23:04.642Z,71.90
2017-08-26T18:25:31.213Z,72.20
2017-08-26T18:27:57.584Z,72.00
2017-08-26T18:30:24.613Z,71.90
2017-08-26T18:32:51.033Z,72.60
2017-08-26T18:35:17.441Z,73.40
2017-08-26T18:37:43.982Z,73.50
2017-08-26T18:40:10.439Z,73.80
2017-08-26T18:42:36.847Z,73.90
2017-08-26T18:45:03.275Z,73.40
2017-08-26T18:47:29.629Z,72.30
2017-08-26T18:49:56.123Z,69.30
2017-08-26T18:52:22.557Z,68.40
2017-08-26T18:54:49.028Z,68.00
2017-08-26T18:57:15.417Z,67.50
2017-08-26T18:59:41.761Z,67.20
2017-08-26T19:02:08.360Z,66.80
2017-08-26T19:04:34.742Z,66.50
2017-08-26T19:07:01.092Z,65.90
2017-08-26T19:09:27.858Z,65.80
2017-08-26T19:11:54.233Z,65.00
2017-08-26T19:14:20.614Z,63.90
2017-08-26T19:16:47.052Z,63.80
2017-08-26T19:19:13.427Z,63.20
2017-08-26T19:21:39.840Z,63.00
2017-08-26T19:24:06.291Z,62.60
2017-08-26T19:26:32.693Z,62.60
2017-08-26T19:28:59.075Z,61.90
2017-08-26T19:31:25.786Z,61.30
2017-08-26T19:33:52.153Z,60.90
2017-08-26T19:36:19.581Z,60.10
2017-08-26T19:38:46.015Z,59.80
2017-08-26T19:41:12.616Z,60.00
2017-08-26T19:43:39.291Z,59.50
2017-08-26T19:46:05.688Z,59.40
2017-08-26T19:48:32.278Z,59.20
2017-08-26T19:50:58.654Z,59.00
2017-08-26T19:53:25.197Z,59.00
2017-08-26T19:55:51.682Z,58.70
2017-08-26T19:58:18.342Z,58.40
2017-08-26T20:00:44.710Z,58.70
2017-08-26T20:03:11.076Z,58.60
2017-08-26T20:05:37.850Z,58.50
2017-08-26T20:08:04.208Z,58.70
2017-08-26T20:10:31.669Z,58.60
2017-08-26T20:12:58.023Z,58.50
2017-08-26T20:15:24.439Z,58.10
2017-08-26T20:17:50.870Z,57.80
2017-08-26T20:20:17.285Z,57.50
2017-08-26T20:22:43.667Z,57.10
2017-08-26T20:25:10.958Z,57.10
2017-08-26T20:27:38.797Z,56.70
2017-08-26T20:30:05.172Z,56.70
2017-08-26T20:32:31.661Z,56.30
2017-08-26T20:34:58.101Z,56.10
2017-08-26T20:37:24.604Z,56.00
2017-08-26T20:39:51.020Z,55.90
2017-08-26T20:42:18.476Z,56.00
2017-08-26T20:44:44.929Z,56.10
2017-08-26T20:47:11.389Z,55.90
2017-08-26T20:49:37.955Z,56.20
2017-08-26T20:52:04.954Z,56.60
2017-08-26T20:54:31.429Z,56.70
2017-08-26T20:56:58.086Z,56.60
2017-08-26T20:59:24.886Z,56.70
2017-08-26T21:01:51.370Z,56.90
2017-08-26T21:04:18.256Z,57.00
2017-08-26T21:06:44.984Z,57.00
2017-08-26T21:09:11.707Z,57.00
2017-08-26T21:11:38.160Z,56.90
2017-08-26T21:14:04.606Z,57.00
2017-08-26T21:16:31.372Z,57.00
2017-08-26T21:18:57.710Z,57.10
2017-08-26T21:21:24.085Z,57.20
2017-08-26T21:23:50.841Z,57.10
2017-08-26T21:26:17.706Z,57.20
2017-08-26T21:28:44.113Z,57.20
2017-08-26T21:31:10.479Z,57.50
2017-08-26T21:33:36.851Z,58.30
2017-08-26T21:36:05.153Z,57.80
2017-08-26T21:38:31.506Z,58.00
2017-08-26T21:40:57.863Z,57.80
2017-08-26T21:43:24.264Z,58.10
2017-08-26T21:45:50.678Z,58.00
2017-08-26T21:48:17.159Z,58.10
2017-08-26T21:50:43.543Z,58.20
2017-08-26T21:53:09.884Z,58.10
2017-08-26T21:55:36.249Z,58.20
2017-08-26T21:58:02.974Z,58.30
2017-08-26T22:00:31.933Z,58.30
2017-08-26T22:02:58.729Z,58.40
2017-08-26T22:05:25.116Z,58.50
2017-08-26T22:07:51.475Z,58.70
2017-08-26T22:10:18.476Z,59.30
2017-08-26T22:12:45.737Z,59.00
2017-08-26T22:15:12.100Z,59.20
2017-08-26T22:17:38.429Z,59.40
2017-08-26T22:20:05.038Z,59.40
2017-08-26T22:22:31.411Z,59.60
2017-08-26T22:24:57.728Z,59.80
2017-08-26T22:27:24.064Z,60.00
2017-08-26T22:29:50.438Z,60.20
2017-08-26T22:32:16.810Z,60.50
2017-08-26T22:34:43.137Z,60.60
2017-08-26T22:37:09.576Z,60.70
2017-08-26T22:39:35.979Z,61.00
2017-08-26T22:42:02.618Z,61.40
2017-08-26T22:44:29.005Z,61.70
2017-08-26T22:46:55.543Z,62.10
2017-08-26T22:49:21.932Z,62.10
2017-08-26T22:51:48.279Z,62.40
2017-08-26T22:54:14.631Z,62.70
2017-08-26T22:56:40.995Z,62.90
2017-08-26T22:59:07.355Z,63.10
2017-08-26T23:01:33.694Z,63.50
2017-08-26T23:04:00.407Z,63.80
2017-08-26T23:06:26.750Z,64.00
2017-08-26T23:08:53.099Z,64.20
2017-08-26T23:11:20.801Z,64.20
2017-08-26T23:13:47.534Z,64.40
2017-08-26T23:16:13.890Z,64.30
2017-08-26T23:18:40.234Z,64.60
2017-08-26T23:21:06.639Z,64.50
2017-08-26T23:23:33.164Z,64.20
2017-08-26T23:25:59.473Z,63.60
2017-08-26T23:28:25.873Z,63.60
2017-08-26T23:30:52.550Z,63.60
2017-08-26T23:33:18.918Z,63.90
2017-08-26T23:35:45.260Z,63.80
2017-08-26T23:38:11.613Z,63.70
2017-08-26T23:40:37.966Z,63.50
2017-08-26T23:43:04.306Z,63.50
2017-08-26T23:45:30.731Z,63.40
2017-08-26T23:47:57.109Z,63.30
2017-08-26T23:50:24.333Z,63.50
2017-08-26T23:52:50.678Z,63.70
2017-08-26T23:55:17.048Z,63.90
2017-08-26T23:57:43.385Z,64.00
